FW5126 Indian Beach NC US current weather conditions

sailwx.info

Wind from 254 at 2 knots gusting 6

Air temperature 12.8° C
Dewpoint 12.2° C

Last reported at 2020-Jan-25 13:00 UTC.
Time now 2020-Jan-25 13:52 UTC

Location: N 34°41' W 076°54'.
View on Google Maps.

See reports from other nearby stations

  
Tides and Currents Weather Stations Pressure Air Temp Water Temp Dewpoint Dewpoint Depression Visibility Wind Speed Wind Dir Waves Ship Positions
date/time (UTC)wind fromknots sea level pressurealtimeterstation pressurevisibilityair tempwater tempwave heightnotes
2020-Jan-25 13:00 254 2 gusting 6 12.8
2020-Jan-25 12:45 214 3 gusting 5 12.8
2020-Jan-25 12:18 227 4 gusting 6 12.8
2020-Jan-25 12:02 247 3 gusting 6 13.3
2020-Jan-25 11:47 240 6 gusting 9 13.3
2020-Jan-25 11:32 232 4 gusting 19 14.4
2020-Jan-25 11:16 188 9 gusting 14 14.4
2020-Jan-25 11:02 165 19 gusting 20 14.4
2020-Jan-25 10:47 173 15 gusting 20 14.4
2020-Jan-25 10:32 167 10 gusting 13 13.9
2020-Jan-25 10:18 176 11 gusting 13 13.9
2020-Jan-25 10:01 182 10 gusting 15 13.9
2020-Jan-25 09:47 167 14 gusting 18 14.4
2020-Jan-25 09:32 172 13 gusting 17 14.4
2020-Jan-25 09:15 160 15 gusting 19 14.4
2020-Jan-25 09:01 158 13 gusting 17 14.4
2020-Jan-25 08:46 157 15 gusting 19 15.0
2020-Jan-25 08:31 360 13 gusting 17 14.4
2020-Jan-25 08:16 153 9 gusting 13 13.9
2020-Jan-25 08:00 153 13 gusting 15 13.9
2020-Jan-25 07:46 165 11 gusting 13 13.9
2020-Jan-25 07:32 105 7 gusting 15 13.9
2020-Jan-25 07:16 165 19 gusting 26 15.6
2020-Jan-25 07:01 175 8 gusting 16 14.4
2020-Jan-25 06:45 154 12 gusting 16 13.9
2020-Jan-25 06:30 148 11 gusting 14 13.9
2020-Jan-25 06:15 140 12 gusting 13 13.9
2020-Jan-25 06:01 137 10 gusting 12 13.9
2020-Jan-25 05:45 143 10 gusting 14 13.9
2020-Jan-25 05:30 140 12 gusting 14 13.9
2020-Jan-25 05:15 133 10 gusting 15 13.9
2020-Jan-25 05:00 155 9 gusting 12 13.9
2020-Jan-25 04:45 146 8 gusting 12 13.9
2020-Jan-25 04:30 127 10 gusting 13 13.9
2020-Jan-25 04:15 140 10 gusting 13 13.9
2020-Jan-25 04:00 130 11 gusting 15 13.9
2020-Jan-25 03:46 130 12 gusting 13 13.9
2020-Jan-25 03:31 142 12 gusting 14 13.9
2020-Jan-25 03:18 138 11 gusting 13 13.9
2020-Jan-25 03:02 142 11 gusting 15 13.9
2020-Jan-25 02:47 140 11 gusting 13 14.4
2020-Jan-25 02:33 125 9 gusting 13 14.4
2020-Jan-25 02:18 130 10 gusting 12 14.4
2020-Jan-25 02:01 141 9 gusting 12 13.9
2020-Jan-25 01:50 132 6 gusting 10 13.3
2020-Jan-25 01:31 124 6 gusting 8 12.8
2020-Jan-25 01:16 114 6 gusting 8 12.8
2020-Jan-25 00:48 118 9 gusting 11 13.3
2020-Jan-25 00:33 108 8 gusting 9 12.8
2020-Jan-25 00:16 103 6 gusting 8 12.8
2020-Jan-25 00:01 089 6 gusting 7 12.8
2020-Jan-24 23:46 089 5 gusting 7 13.3
2020-Jan-24 23:31 096 5 gusting 8 13.3
2020-Jan-24 23:17 095 4 gusting 8 13.3
2020-Jan-24 23:01 049 3 gusting 6 12.8
2020-Jan-24 22:46 060 4 gusting 7 12.8
2020-Jan-24 22:31 360 6 gusting 7 12.8
2020-Jan-24 22:16 360 6 gusting 7 13.3
2020-Jan-24 22:02 109 6 gusting 8 13.3
2020-Jan-24 21:47 116 6 gusting 9 13.9
2020-Jan-24 21:32 082 6 gusting 9 13.9
2020-Jan-24 21:16 103 6 gusting 8 15.0
2020-Jan-24 21:01 087 4 gusting 8 15.0
2020-Jan-24 20:46 081 5 gusting 10 15.6
2020-Jan-24 20:30 360 5 gusting 8 15.6
2020-Jan-24 20:16 360 4 gusting 8 15.6
2020-Jan-24 20:01 360 6 gusting 10 16.1
2020-Jan-24 19:46 360 6 gusting 10 16.1
2020-Jan-24 19:31 360 6 gusting 11 15.6
2020-Jan-24 19:16 360 5 gusting 9 15.6
2020-Jan-24 19:01 360 5 gusting 9 15.6
2020-Jan-24 18:46 360 6 gusting 10 15.6
2020-Jan-24 18:31 360 6 gusting 10 15.6
2020-Jan-24 18:16 360 6 gusting 10 16.1
2020-Jan-24 18:00 360 6 gusting 10 16.7
2020-Jan-24 17:45 360 6 gusting 10 16.7
2020-Jan-24 17:30 102 4 gusting 8 17.2
2020-Jan-24 17:15 072 5 gusting 10 17.2
2020-Jan-24 17:00 091 5 gusting 10 17.2
2020-Jan-24 16:45 091 5 gusting 10 16.7
2020-Jan-24 16:32 360 2 gusting 7 15.6
2020-Jan-24 16:16 360 1 gusting 4 15.6
2020-Jan-24 16:03 360 1 gusting 5 15.0
2020-Jan-24 15:46 360 2 gusting 6 15.0
2020-Jan-24 15:31 011 3 gusting 8 14.4
2020-Jan-24 15:16 360 2 gusting 5 12.8
2020-Jan-24 15:02 037 0 gusting 4 12.2
2020-Jan-24 14:46 355 0 gusting 3 11.7
2020-Jan-24 14:32 005 1 gusting 4 11.7
2020-Jan-24 14:16 324 1 gusting 6 11.1
2020-Jan-24 14:01 346 2 gusting 8 11.1
2020-Jan-24 13:46 323 4 gusting 8 10.6
2020-Jan-24 13:31 042 3 gusting 8 10.6
2020-Jan-24 13:18 032 3 gusting 8 10.6
2020-Jan-24 13:01 351 3 gusting 10 10.0
2020-Jan-24 12:45 351 3 gusting 8 10.0
2020-Jan-24 12:30 325 3 gusting 7 10.0
2020-Jan-24 12:15 010 3 gusting 9 10.0
2020-Jan-24 12:01 013 2 gusting 6 10.6
2020-Jan-24 11:46 050 3 gusting 7 10.6
2020-Jan-24 11:30 360 4 gusting 10 10.0
2020-Jan-24 11:15 017 3 gusting 8 10.0
2020-Jan-24 11:00 035 1 gusting 5 9.4
2020-Jan-24 10:45 355 2 gusting 6 9.4
2020-Jan-24 10:30 355 2 gusting 7 9.4
2020-Jan-24 10:16 334 1 gusting 5 9.4
2020-Jan-24 10:00 344 3 gusting 6 10.0
2020-Jan-24 09:45 332 2 gusting 6 9.4
2020-Jan-24 09:30 327 1 gusting 5 9.4
2020-Jan-24 09:15 329 1 gusting 5 9.4
2020-Jan-24 09:00 037 2 gusting 5 9.4
2020-Jan-24 08:46 325 1 gusting 5 9.4
2020-Jan-24 08:30 010 1 gusting 4 9.4
2020-Jan-24 08:15 017 10.0
2020-Jan-24 08:00 342 9.4
2020-Jan-24 07:45 348 0 gusting 4 9.4
2020-Jan-24 07:30 348 9.4
2020-Jan-24 07:18 343 0 gusting 4 10.0
2020-Jan-24 07:02 319 10.0
2020-Jan-24 06:47 342 2 gusting 5 10.0
2020-Jan-24 06:33 340 2 gusting 6 9.4
2020-Jan-24 06:17 344 1 gusting 5 9.4
2020-Jan-24 06:02 355 2 gusting 6 10.0
2020-Jan-24 05:46 332 2 gusting 7 10.0
2020-Jan-24 05:33 023 2 gusting 8 10.0
2020-Jan-24 05:19 333 4 gusting 8 10.0
2020-Jan-24 05:01 026 4 gusting 9 10.0
2020-Jan-24 04:47 012 3 gusting 10 10.0
2020-Jan-24 04:31 019 2 gusting 6 10.0
2020-Jan-24 04:17 333 3 gusting 9 10.0
2020-Jan-24 04:00 010 3 gusting 8 10.0
2020-Jan-24 03:48 019 3 gusting 9 10.0
2020-Jan-24 03:31 344 2 gusting 7 10.0
2020-Jan-24 03:17 349 3 gusting 9 10.0
2020-Jan-24 03:02 051 3 gusting 10 10.0
2020-Jan-24 02:46 360 3 gusting 7 10.0
2020-Jan-24 02:31 017 2 gusting 7 10.6
2020-Jan-24 02:16 329 2 gusting 8 10.6
2020-Jan-24 02:02 302 3 gusting 9 10.6
2020-Jan-24 01:46 344 2 gusting 8 10.6
2020-Jan-24 01:31 306 2 gusting 11 10.6
2020-Jan-24 01:17 360 2 gusting 8 10.6
2020-Jan-24 01:01 005 2 gusting 10 11.1
2020-Jan-24 00:46 009 3 gusting 11 11.1
2020-Jan-24 00:31 010 3 gusting 10 11.1
2020-Jan-24 00:16 038 4 gusting 10 11.1
2020-Jan-24 00:01 011 4 gusting 9 11.7
2020-Jan-23 23:46 360 3 gusting 11 11.7
2020-Jan-23 23:31 011 2 gusting 10 11.7
2020-Jan-23 23:16 011 3 gusting 9 12.2
2020-Jan-23 23:01 010 3 gusting 7 12.2
2020-Jan-23 22:45 349 3 gusting 10 12.2
2020-Jan-23 22:31 348 3 gusting 6 12.2
2020-Jan-23 22:16 024 1 gusting 6 12.8
2020-Jan-23 22:00 017 1 gusting 6 12.8
2020-Jan-23 21:46 015 2 gusting 6 12.8
2020-Jan-23 21:31 349 1 gusting 5 12.8
2020-Jan-23 21:15 314 2 gusting 7 12.8
2020-Jan-23 21:01 334 2 gusting 7 12.8
2020-Jan-23 20:46 350 2 gusting 6 13.3
2020-Jan-23 20:30 055 4 gusting 10 13.3
2020-Jan-23 20:15 005 1 gusting 8 13.3
2020-Jan-23 20:00 010 3 gusting 10 13.3
2020-Jan-23 19:45 020 2 gusting 10 13.3
2020-Jan-23 19:30 355 3 gusting 9 13.3
2020-Jan-23 19:15 317 2 gusting 8 13.3
2020-Jan-23 19:01 025 2 gusting 9 13.9
2020-Jan-23 18:46 346 4 gusting 11 13.9
2020-Jan-23 18:31 360 3 gusting 11 13.9
2020-Jan-23 18:15 360 3 gusting 11 13.9
2020-Jan-23 18:00 017 3 gusting 9 13.9
2020-Jan-23 17:45 009 4 gusting 9 14.4
2020-Jan-23 17:30 360 4 gusting 10 13.9
2020-Jan-23 17:15 360 5 gusting 12 13.9
2020-Jan-23 17:00 360 3 gusting 11 13.9
2020-Jan-23 16:47 018 1 gusting 10 13.3
2020-Jan-23 16:33 024 3 gusting 9 12.8
2020-Jan-23 16:18 360 4 gusting 9 12.2
2020-Jan-23 16:02 332 2 gusting 10 11.1
2020-Jan-23 15:46 051 2 gusting 8 10.0
2020-Jan-23 15:31 325 3 gusting 9 9.4
2020-Jan-23 15:16 019 3 gusting 9 8.9
2020-Jan-23 15:01 355 3 gusting 9 8.3
2020-Jan-23 14:45 350 2 gusting 9 7.8
2020-Jan-23 14:31 038 3 gusting 11 7.2
2020-Jan-23 14:15 030 4 gusting 9 6.7
2020-Jan-23 14:01 319 4 gusting 10 6.1
2020-Jan-23 13:46 014 3 gusting 8 6.1
2020-Jan-23 13:30 347 5 gusting 10 5.6
2020-Jan-23 13:15 013 4 gusting 10 5.0
2020-Jan-23 13:00 317 3 gusting 10 4.4